createdAt,value
2018-03-07T00:01:53.882Z,63.03
2018-03-07T00:04:22.207Z,60.12
2018-03-07T00:06:49.748Z,65.03
2018-03-07T00:09:17.286Z,65.70
2018-03-07T00:11:45.575Z,64.22
2018-03-07T00:14:13.120Z,66.60
2018-03-07T00:16:41.548Z,69.32
2018-03-07T00:19:09.097Z,65.82
2018-03-07T00:21:36.634Z,65.78
2018-03-07T00:24:04.262Z,62.83
2018-03-07T00:26:32.676Z,71.40
2018-03-07T00:29:00.207Z,66.00
2018-03-07T00:31:28.487Z,74.90
2018-03-07T00:33:56.786Z,72.12
2018-03-07T00:36:24.305Z,66.20
2018-03-07T00:38:51.850Z,71.07
2018-03-07T00:41:19.386Z,70.45
2018-03-07T00:43:46.923Z,75.18
2018-03-07T00:46:14.451Z,76.32
2018-03-07T00:48:41.997Z,69.60
2018-03-07T00:51:09.534Z,72.65
2018-03-07T00:53:37.069Z,71.90
2018-03-07T00:56:04.666Z,80.10
2018-03-07T00:58:32.195Z,77.15
2018-03-07T01:00:59.786Z,72.05
2018-03-07T01:03:27.333Z,76.97
2018-03-07T01:05:54.838Z,85.68
2018-03-07T01:08:23.157Z,84.60
2018-03-07T01:10:50.680Z,81.97
2018-03-07T01:13:18.978Z,82.53
2018-03-07T01:15:46.516Z,76.57
2018-03-07T01:18:14.038Z,82.65
2018-03-07T01:20:41.562Z,72.93
2018-03-07T01:23:09.339Z,87.60
2018-03-07T01:25:37.018Z,77.47
2018-03-07T01:28:04.791Z,75.22
2018-03-07T01:30:32.332Z,73.03
2018-03-07T01:32:59.852Z,73.25
2018-03-07T01:35:27.425Z,79.25
2018-03-07T01:37:54.986Z,78.55
2018-03-07T01:40:22.536Z,80.20
2018-03-07T01:42:50.069Z,80.72
2018-03-07T01:45:17.647Z,78.30
2018-03-07T01:47:45.176Z,81.10
2018-03-07T01:50:13.502Z,73.80
2018-03-07T01:52:41.015Z,82.40
2018-03-07T01:55:08.585Z,76.60
2018-03-07T01:57:36.876Z,78.45
2018-03-07T02:00:04.473Z,77.55
2018-03-07T02:02:32.034Z,80.03
2018-03-07T02:04:59.561Z,75.07
2018-03-07T02:07:27.090Z,82.60
2018-03-07T02:09:55.400Z,75.00
2018-03-07T02:12:22.930Z,75.47
2018-03-07T02:14:51.234Z,87.65
2018-03-07T02:17:18.773Z,80.35
2018-03-07T02:19:46.344Z,82.28
2018-03-07T02:22:13.882Z,82.15
2018-03-07T02:24:42.160Z,74.62
2018-03-07T02:27:10.469Z,76.90
2018-03-07T02:29:38.056Z,74.70
2018-03-07T02:32:05.654Z,80.90
2018-03-07T02:34:33.943Z,90.32
2018-03-07T02:37:02.235Z,80.05
2018-03-07T02:39:29.769Z,80.47
2018-03-07T02:41:57.301Z,89.70
2018-03-07T02:44:24.836Z,80.03
2018-03-07T02:46:52.387Z,91.20
2018-03-07T02:49:19.937Z,82.55
2018-03-07T02:51:47.525Z,96.22
2018-03-07T02:54:15.043Z,93.53
2018-03-07T02:56:42.594Z,88.45
2018-03-07T02:59:10.138Z,82.85
2018-03-07T03:01:38.463Z,78.32
2018-03-07T03:04:06.021Z,79.50
2018-03-07T03:06:33.559Z,87.53
2018-03-07T03:09:01.097Z,85.72
2018-03-07T03:11:28.659Z,93.82
2018-03-07T03:13:56.958Z,87.07
2018-03-07T03:16:24.501Z,90.38
2018-03-07T03:18:52.030Z,88.50
2018-03-07T03:21:19.557Z,89.97
2018-03-07T03:23:47.075Z,91.32
2018-03-07T03:26:14.647Z,94.80
2018-03-07T03:28:42.186Z,99.55
2018-03-07T03:31:10.564Z,90.32
2018-03-07T03:33:38.124Z,96.37
2018-03-07T03:36:06.413Z,94.50
2018-03-07T03:38:33.959Z,106.25
2018-03-07T03:41:01.483Z,94.05
2018-03-07T03:43:29.007Z,104.75
2018-03-07T03:45:56.573Z,102.50
2018-03-07T03:48:24.092Z,91.53
2018-03-07T03:50:52.390Z,99.40
2018-03-07T03:53:19.936Z,96.55
2018-03-07T03:55:47.459Z,105.22
2018-03-07T03:58:14.979Z,98.53
2018-03-07T04:00:42.605Z,92.90
2018-03-07T04:03:10.890Z,93.40
2018-03-07T04:05:38.425Z,90.43
2018-03-07T04:08:06.723Z,97.93
2018-03-07T04:10:34.251Z,93.32
2018-03-07T04:13:02.690Z,101.15
2018-03-07T04:15:30.235Z,97.75
2018-03-07T04:17:57.821Z,98.32
2018-03-07T04:20:25.366Z,97.10
2018-03-07T04:22:52.933Z,91.40
2018-03-07T04:25:20.456Z,93.95
2018-03-07T04:27:47.993Z,96.93
2018-03-07T04:30:16.301Z,97.95
2018-03-07T04:32:43.811Z,96.10
2018-03-07T04:35:11.352Z,102.95
2018-03-07T04:37:38.942Z,100.10
2018-03-07T04:40:06.481Z,97.75
2018-03-07T04:42:34.003Z,96.68
2018-03-07T04:45:01.559Z,104.40
2018-03-07T04:47:29.130Z,108.53
2018-03-07T04:49:56.647Z,98.32
2018-03-07T04:52:24.972Z,104.68
2018-03-07T04:54:52.518Z,104.00
2018-03-07T04:57:20.037Z,105.65
2018-03-07T04:59:48.364Z,100.10
2018-03-07T05:02:15.893Z,107.07
2018-03-07T05:04:43.604Z,106.75
2018-03-07T05:07:11.156Z,105.65
2018-03-07T05:09:38.684Z,107.50
2018-03-07T05:12:06.353Z,108.93
2018-03-07T05:14:33.916Z,117.40
2018-03-07T05:17:01.450Z,112.47
2018-03-07T05:19:29.804Z,108.18
2018-03-07T05:21:57.371Z,117.32
2018-03-07T05:24:24.992Z,115.28
2018-03-07T05:26:52.434Z,114.30
2018-03-07T05:29:20.010Z,126.22
2018-03-07T05:31:47.553Z,119.30
2018-03-07T05:34:15.088Z,119.32
2018-03-07T05:36:42.665Z,121.53
2018-03-07T05:39:10.179Z,110.18
2018-03-07T05:41:37.744Z,121.60
2018-03-07T05:44:05.537Z,118.43
2018-03-07T05:46:33.056Z,119.18
2018-03-07T05:49:00.583Z,117.45
2018-03-07T05:51:28.240Z,124.28
2018-03-07T05:53:55.768Z,123.10
2018-03-07T05:56:23.274Z,124.22
2018-03-07T05:58:50.833Z,112.18
2018-03-07T06:01:18.377Z,113.20
2018-03-07T06:03:45.913Z,118.80
2018-03-07T06:06:13.472Z,116.97
2018-03-07T06:08:41.004Z,115.03
2018-03-07T06:11:08.527Z,113.00
2018-03-07T06:13:36.119Z,108.22
2018-03-07T06:16:03.720Z,121.37
2018-03-07T06:18:31.243Z,112.50
2018-03-07T06:20:59.587Z,119.57
2018-03-07T06:23:27.169Z,114.55
2018-03-07T06:25:54.686Z,119.00
2018-03-07T06:28:22.232Z,107.87
2018-03-07T06:30:49.746Z,118.60
2018-03-07T06:33:17.293Z,123.05
2018-03-07T06:35:44.826Z,114.35
2018-03-07T06:38:12.362Z,125.30
2018-03-07T06:40:39.897Z,124.00
2018-03-07T06:43:08.377Z,121.00
2018-03-07T06:45:36.754Z,116.93
2018-03-07T06:48:04.304Z,114.25
2018-03-07T06:50:31.853Z,117.43
2018-03-07T06:52:59.381Z,115.68
2018-03-07T06:55:26.896Z,126.60
2018-03-07T06:57:55.226Z,114.35
2018-03-07T07:00:22.766Z,110.88
2018-03-07T07:02:50.274Z,118.05
2018-03-07T07:05:18.596Z,113.45
2018-03-07T07:07:46.143Z,116.37
2018-03-07T07:10:13.691Z,124.25
2018-03-07T07:12:41.213Z,120.95
2018-03-07T07:15:08.731Z,122.82
2018-03-07T07:17:36.281Z,120.40
2018-03-07T07:20:03.943Z,117.78
2018-03-07T07:22:31.498Z,122.07
2018-03-07T07:24:59.030Z,113.47
2018-03-07T07:27:27.419Z,118.37
2018-03-07T07:29:54.928Z,114.30
2018-03-07T07:32:22.452Z,120.20
2018-03-07T07:34:50.000Z,123.05
2018-03-07T07:37:17.553Z,113.85
2018-03-07T07:39:45.848Z,132.55
2018-03-07T07:42:13.417Z,119.07
2018-03-07T07:44:40.928Z,110.32
2018-03-07T07:47:08.462Z,124.15
2018-03-07T07:49:36.188Z,115.05
2018-03-07T07:52:03.740Z,120.80
2018-03-07T07:54:31.482Z,122.53
2018-03-07T07:56:59.781Z,127.95
2018-03-07T07:59:27.341Z,120.20
2018-03-07T08:01:54.900Z,110.05
2018-03-07T08:04:22.438Z,124.15
2018-03-07T08:06:50.770Z,111.22
2018-03-07T08:09:18.432Z,128.95
2018-03-07T08:11:45.974Z,117.60
2018-03-07T08:14:13.553Z,112.20
2018-03-07T08:16:41.066Z,112.47
2018-03-07T08:19:09.406Z,109.13
2018-03-07T08:21:37.685Z,102.43
2018-03-07T08:24:05.326Z,109.93
2018-03-07T08:26:32.877Z,113.47
2018-03-07T08:29:00.415Z,116.40
2018-03-07T08:31:27.935Z,99.30
2018-03-07T08:33:55.625Z,103.67
2018-03-07T08:36:23.164Z,95.97
2018-03-07T08:38:51.448Z,102.73
2018-03-07T08:41:19.722Z,93.87
2018-03-07T08:43:48.039Z,96.07
2018-03-07T08:46:15.569Z,96.37
2018-03-07T08:48:44.019Z,90.70
2018-03-07T08:51:11.644Z,86.47
2018-03-07T08:53:39.169Z,96.73
2018-03-07T08:56:07.453Z,99.00
2018-03-07T08:58:35.197Z,94.60
2018-03-07T09:01:03.504Z,101.60
2018-03-07T09:03:31.015Z,98.07
2018-03-07T09:05:58.570Z,98.43
2018-03-07T09:08:26.078Z,96.60
2018-03-07T09:10:53.596Z,103.00
2018-03-07T09:13:21.140Z,111.90
2018-03-07T09:15:48.665Z,96.30
2018-03-07T09:18:16.195Z,97.57
2018-03-07T09:20:43.731Z,98.63
2018-03-07T09:23:11.252Z,106.87
2018-03-07T09:25:38.772Z,100.00
2018-03-07T09:28:07.092Z,92.63
2018-03-07T09:30:34.680Z,93.93
2018-03-07T09:33:03.209Z,92.60
2018-03-07T09:35:30.756Z,88.03
2018-03-07T09:37:58.337Z,88.20
2018-03-07T09:40:25.860Z,76.63
2018-03-07T09:42:53.441Z,83.40
2018-03-07T09:45:20.965Z,72.67
2018-03-07T09:47:48.493Z,53.20
2018-03-07T09:50:16.048Z,76.70
2018-03-07T09:52:43.579Z,56.67
2018-03-07T09:55:11.087Z,45.37
2018-03-07T09:57:38.640Z,49.87
2018-03-07T10:00:06.212Z,56.00
2018-03-07T10:02:33.715Z,58.27
2018-03-07T10:05:01.261Z,59.33
2018-03-07T10:07:28.781Z,59.43
2018-03-07T10:09:56.295Z,51.53
2018-03-07T10:12:23.855Z,52.50
2018-03-07T10:14:51.376Z,50.43
2018-03-07T10:17:18.896Z,60.17
2018-03-07T10:19:46.433Z,52.07
2018-03-07T10:22:13.962Z,47.40
2018-03-07T10:24:42.361Z,43.47
2018-03-07T10:27:09.899Z,35.40
2018-03-07T10:29:38.195Z,40.90
2018-03-07T10:32:05.959Z,23.40
2018-03-07T10:34:33.530Z,39.73
2018-03-07T10:37:01.058Z,21.63
2018-03-07T10:39:29.358Z,20.17
2018-03-07T10:41:56.907Z,25.80
2018-03-07T10:44:25.193Z,23.20
2018-03-07T10:46:52.698Z,26.10
2018-03-07T10:49:20.240Z,26.17
2018-03-07T10:51:47.792Z,28.13
2018-03-07T10:54:15.324Z,70.87
2018-03-07T10:56:42.863Z,47.20
2018-03-07T10:59:11.145Z,37.70
2018-03-07T11:01:39.428Z,40.93
2018-03-07T11:04:06.986Z,35.43
2018-03-07T11:06:34.495Z,44.97
2018-03-07T11:09:02.035Z,37.73
2018-03-07T11:11:29.562Z,44.20
2018-03-07T11:13:57.134Z,41.40
2018-03-07T11:16:24.617Z,35.20
2018-03-07T11:18:52.154Z,35.40
2018-03-07T11:21:19.664Z,31.47
2018-03-07T11:23:47.202Z,31.97
2018-03-07T11:26:14.786Z,38.77
2018-03-07T11:28:43.076Z,39.87
2018-03-07T11:31:11.351Z,43.07
2018-03-07T11:33:39.672Z,36.53
2018-03-07T11:36:07.200Z,274.33
2018-03-07T11:38:35.592Z,44.00
2018-03-07T11:41:03.145Z,41.40
2018-03-07T11:43:30.673Z,36.47
2018-03-07T11:45:58.202Z,43.17
2018-03-07T11:48:25.801Z,38.27
2018-03-07T11:50:54.095Z,40.57
2018-03-07T11:53:22.408Z,45.20
2018-03-07T11:55:49.943Z,47.73
2018-03-07T11:58:17.458Z,50.80
2018-03-07T12:00:44.974Z,53.03
2018-03-07T12:03:12.534Z,61.43
2018-03-07T12:05:40.063Z,70.30
2018-03-07T12:08:07.644Z,58.17
2018-03-07T12:10:35.357Z,60.57
2018-03-07T12:13:02.902Z,66.57
2018-03-07T12:15:30.424Z,60.73
2018-03-07T12:17:57.972Z,61.00
2018-03-07T12:20:25.498Z,63.80
2018-03-07T12:22:53.006Z,53.50
2018-03-07T12:25:20.553Z,57.60
2018-03-07T12:27:48.058Z,50.80
2018-03-07T12:30:15.587Z,51.00
2018-03-07T12:32:43.142Z,50.80
2018-03-07T12:35:10.666Z,52.50
2018-03-07T12:37:38.952Z,43.23
2018-03-07T12:40:06.619Z,40.10
2018-03-07T12:42:34.135Z,34.67
2018-03-07T12:45:01.674Z,33.93
2018-03-07T12:47:29.228Z,42.37
2018-03-07T12:49:56.765Z,28.23
2018-03-07T12:52:25.074Z,33.77
2018-03-07T12:54:52.620Z,35.87
2018-03-07T12:57:20.139Z,24.50
2018-03-07T12:59:47.651Z,23.63
2018-03-07T13:02:15.202Z,19.40
2018-03-07T13:04:42.739Z,18.33
2018-03-07T13:07:10.261Z,20.50
2018-03-07T13:09:38.573Z,20.17
2018-03-07T13:12:06.118Z,19.63
2018-03-07T13:14:34.392Z,22.33
2018-03-07T13:17:03.315Z,16.80
2018-03-07T13:19:30.855Z,18.83
2018-03-07T13:21:58.370Z,17.43
2018-03-07T13:24:25.922Z,17.20
2018-03-07T13:26:53.434Z,16.00
2018-03-07T13:29:20.962Z,15.13
2018-03-07T13:31:49.282Z,9.30
2018-03-07T13:34:16.800Z,14.20
2018-03-07T13:36:45.094Z,21.30
2018-03-07T13:39:12.646Z,19.23
2018-03-07T13:41:40.180Z,18.00
2018-03-07T13:44:08.470Z,27.10
2018-03-07T13:46:37.106Z,25.67
2018-03-07T13:49:04.623Z,28.13
2018-03-07T13:51:32.160Z,25.87
2018-03-07T13:54:00.468Z,28.60
2018-03-07T13:56:28.044Z,24.80
2018-03-07T13:58:56.287Z,27.60
2018-03-07T14:01:23.875Z,30.23
2018-03-07T14:03:51.390Z,18.80
2018-03-07T14:06:19.672Z,20.07
2018-03-07T14:08:47.982Z,18.87
2018-03-07T14:11:15.705Z,15.67
2018-03-07T14:13:43.988Z,21.40
2018-03-07T14:16:12.367Z,19.00
2018-03-07T14:18:40.016Z,13.60
2018-03-07T14:21:07.528Z,15.43
2018-03-07T14:23:35.117Z,10.17
2018-03-07T14:26:02.679Z,15.00
2018-03-07T14:28:30.208Z,13.07
2018-03-07T14:30:57.777Z,9.23
2018-03-07T14:33:25.284Z,14.63
2018-03-07T14:35:52.796Z,6.63
2018-03-07T14:38:20.342Z,12.13
2018-03-07T14:40:47.854Z,9.27
2018-03-07T14:43:16.172Z,10.07
2018-03-07T14:45:43.731Z,11.10
2018-03-07T14:48:11.244Z,7.33
2018-03-07T14:50:38.744Z,11.20
2018-03-07T14:53:06.300Z,12.13
2018-03-07T14:55:33.824Z,11.15
2018-03-07T14:58:02.104Z,13.20
2018-03-07T15:00:30.427Z,19.47
2018-03-07T15:02:57.953Z,8.87
2018-03-07T15:05:25.474Z,12.60
2018-03-07T15:07:53.006Z,13.40
2018-03-07T15:10:20.525Z,13.63
2018-03-07T15:12:48.790Z,16.23
2018-03-07T15:15:17.188Z,15.80
2018-03-07T15:17:44.887Z,13.00
2018-03-07T15:20:12.432Z,12.60
2018-03-07T15:22:39.958Z,21.87
2018-03-07T15:25:08.248Z,13.40
2018-03-07T15:27:36.088Z,19.43
2018-03-07T15:30:03.651Z,13.20
2018-03-07T15:32:31.929Z,12.03
2018-03-07T15:35:00.665Z,16.07
2018-03-07T15:37:28.225Z,17.03
2018-03-07T15:39:55.746Z,15.97
2018-03-07T15:42:24.048Z,14.33
2018-03-07T15:44:51.589Z,15.90
2018-03-07T15:47:19.111Z,15.00
2018-03-07T15:49:46.628Z,21.90
2018-03-07T15:52:14.233Z,16.10
2018-03-07T15:54:41.750Z,12.17
2018-03-07T15:57:09.270Z,11.17
2018-03-07T15:59:37.597Z,11.30
2018-03-07T16:02:05.203Z,12.30
2018-03-07T16:04:32.790Z,11.20
2018-03-07T16:07:00.339Z,19.90
2018-03-07T16:09:27.864Z,22.20
2018-03-07T16:11:56.143Z,22.67
2018-03-07T16:14:23.687Z,74.73
2018-03-07T16:16:51.205Z,25.10
2018-03-07T16:19:18.722Z,16.10
2018-03-07T16:21:46.259Z,13.00
2018-03-07T16:24:13.784Z,17.70
2018-03-07T16:26:41.307Z,12.73
2018-03-07T16:29:09.755Z,17.83
2018-03-07T16:31:37.295Z,10.40
2018-03-07T16:34:04.821Z,11.30
2018-03-07T16:36:32.364Z,10.43
2018-03-07T16:39:00.652Z,10.30
2018-03-07T16:41:28.931Z,7.80
2018-03-07T16:43:57.227Z,9.20
2018-03-07T16:46:24.767Z,13.37
2018-03-07T16:48:53.041Z,7.80
2018-03-07T16:51:21.334Z,9.60
2018-03-07T16:53:48.838Z,10.10
2018-03-07T16:56:16.349Z,8.80
2018-03-07T16:58:43.875Z,7.57
2018-03-07T17:01:11.383Z,9.43
2018-03-07T17:03:38.914Z,9.40
2018-03-07T17:06:07.243Z,8.93
2018-03-07T17:08:34.767Z,17.00
2018-03-07T17:11:02.318Z,10.10
2018-03-07T17:13:30.611Z,12.70
2018-03-07T17:15:58.142Z,10.40
2018-03-07T17:18:26.521Z,7.93
2018-03-07T17:20:54.242Z,10.20
2018-03-07T17:23:21.761Z,9.20
2018-03-07T17:25:49.256Z,8.93
2018-03-07T17:28:16.782Z,12.10
2018-03-07T17:30:44.282Z,19.40
2018-03-07T17:33:11.808Z,12.07
2018-03-07T17:35:39.386Z,19.60
2018-03-07T17:38:07.237Z,22.40
2018-03-07T17:40:34.754Z,17.23
2018-03-07T17:43:02.331Z,16.63
2018-03-07T17:45:29.853Z,15.00
2018-03-07T17:47:57.379Z,14.70
2018-03-07T17:50:24.912Z,8.80
2018-03-07T17:52:52.433Z,11.37
2018-03-07T17:55:20.734Z,16.30
2018-03-07T17:57:49.049Z,9.90
2018-03-07T18:00:16.592Z,13.27
2018-03-07T18:02:44.104Z,12.40
2018-03-07T18:05:11.761Z,13.67
2018-03-07T18:07:39.315Z,12.70
2018-03-07T18:10:06.932Z,14.70
2018-03-07T18:12:34.525Z,12.47
2018-03-07T18:15:02.080Z,7.60
2018-03-07T18:17:29.601Z,9.13
2018-03-07T18:19:57.145Z,9.30
2018-03-07T18:22:25.421Z,10.70
2018-03-07T18:24:52.930Z,11.07
2018-03-07T18:27:20.684Z,8.37
2018-03-07T18:29:48.212Z,6.85
2018-03-07T18:32:15.746Z,7.27
2018-03-07T18:34:44.081Z,11.07
2018-03-07T18:37:11.599Z,5.70
2018-03-07T18:39:39.168Z,5.43
2018-03-07T18:42:06.887Z,6.97
2018-03-07T18:44:35.188Z,6.82
2018-03-07T18:47:02.724Z,9.48
2018-03-07T18:49:30.333Z,4.90
2018-03-07T18:52:00.523Z,16.83
2018-03-07T18:54:28.899Z,16.00
2018-03-07T18:56:56.436Z,15.32
2018-03-07T18:59:23.934Z,14.87
2018-03-07T19:01:52.198Z,15.03
2018-03-07T19:04:20.519Z,30.75
2018-03-07T19:06:48.064Z,18.80
2018-03-07T19:09:15.589Z,11.70
2018-03-07T19:11:43.129Z,11.70
2018-03-07T19:14:10.667Z,19.83
2018-03-07T19:16:39.088Z,25.40
2018-03-07T19:19:07.396Z,16.33
2018-03-07T19:21:35.902Z,16.07
2018-03-07T19:24:03.424Z,11.57
2018-03-07T19:26:31.729Z,9.93
2018-03-07T19:28:59.243Z,10.80
2018-03-07T19:31:27.526Z,6.17
2018-03-07T19:33:55.837Z,17.02
2018-03-07T19:36:23.362Z,9.27
2018-03-07T19:38:51.675Z,7.37
2018-03-07T19:41:19.199Z,16.10
2018-03-07T19:43:46.717Z,6.30
2018-03-07T19:46:14.233Z,8.97
2018-03-07T19:48:41.777Z,8.18
2018-03-07T19:51:09.336Z,5.30
2018-03-07T19:53:37.622Z,5.83
2018-03-07T19:56:05.141Z,4.90
2018-03-07T19:58:32.693Z,5.23
2018-03-07T20:01:00.234Z,6.28
2018-03-07T20:03:27.819Z,5.15
2018-03-07T20:05:55.289Z,5.03
2018-03-07T20:08:23.627Z,5.20
2018-03-07T20:10:51.164Z,5.00
2018-03-07T20:13:18.717Z,5.30
2018-03-07T20:15:46.269Z,6.63
2018-03-07T20:18:13.855Z,6.85
2018-03-07T20:20:41.523Z,5.57
2018-03-07T20:23:09.054Z,8.00
2018-03-07T20:25:36.612Z,7.85
2018-03-07T20:28:04.361Z,5.60
2018-03-07T20:30:31.895Z,6.35
2018-03-07T20:32:59.466Z,5.80
2018-03-07T20:35:27.781Z,6.90
2018-03-07T20:37:55.314Z,6.00
2018-03-07T20:40:23.607Z,5.85
2018-03-07T20:42:51.158Z,26.17
2018-03-07T20:45:18.690Z,6.25
2018-03-07T20:47:46.976Z,14.93
2018-03-07T20:50:15.337Z,7.97
2018-03-07T20:52:42.870Z,6.80
2018-03-07T20:55:10.421Z,9.60
2018-03-07T20:57:38.023Z,8.05
2018-03-07T21:00:05.548Z,9.20
2018-03-07T21:02:33.064Z,8.25
2018-03-07T21:05:01.365Z,10.48
2018-03-07T21:07:28.926Z,8.30
2018-03-07T21:09:56.462Z,8.43
2018-03-07T21:12:24.003Z,7.60
2018-03-07T21:14:52.346Z,8.47
2018-03-07T21:17:19.825Z,10.02
2018-03-07T21:19:47.726Z,8.25
2018-03-07T21:22:15.311Z,8.82
2018-03-07T21:24:42.867Z,10.43
2018-03-07T21:27:10.447Z,10.02
2018-03-07T21:29:38.117Z,9.45
2018-03-07T21:32:05.670Z,13.05
2018-03-07T21:34:33.187Z,9.05
2018-03-07T21:37:00.728Z,9.77
2018-03-07T21:39:29.004Z,12.93
2018-03-07T21:41:57.295Z,12.40
2018-03-07T21:44:24.843Z,13.52
2018-03-07T21:46:53.123Z,12.27
2018-03-07T21:49:20.661Z,15.05
2018-03-07T21:51:48.981Z,14.15
2018-03-07T21:54:16.512Z,14.10
2018-03-07T21:56:44.818Z,16.62
2018-03-07T21:59:12.394Z,13.52
2018-03-07T22:01:40.745Z,13.65
2018-03-07T22:04:08.457Z,20.83
2018-03-07T22:06:35.983Z,15.37
2018-03-07T22:09:03.517Z,15.63
2018-03-07T22:11:31.065Z,14.50
2018-03-07T22:13:59.336Z,15.32
2018-03-07T22:16:27.708Z,21.35
2018-03-07T22:18:55.194Z,15.88
2018-03-07T22:21:22.724Z,12.95
2018-03-07T22:23:51.023Z,13.30
2018-03-07T22:26:18.542Z,17.83
2018-03-07T22:28:46.100Z,14.60
2018-03-07T22:31:13.626Z,12.60
2018-03-07T22:33:41.175Z,14.85
2018-03-07T22:36:09.505Z,15.45
2018-03-07T22:38:37.952Z,14.23
2018-03-07T22:41:05.505Z,13.57
2018-03-07T22:43:33.027Z,14.38
2018-03-07T22:46:00.555Z,14.27
2018-03-07T22:48:28.092Z,12.65
2018-03-07T22:50:55.641Z,14.27
2018-03-07T22:53:23.197Z,13.82
2018-03-07T22:55:50.705Z,14.32
2018-03-07T22:58:19.056Z,15.50
2018-03-07T23:00:50.259Z,13.88
2018-03-07T23:03:17.762Z,15.50
2018-03-07T23:05:45.599Z,14.87
2018-03-07T23:08:13.116Z,14.63
2018-03-07T23:10:41.418Z,11.93
2018-03-07T23:13:09.000Z,14.60
2018-03-07T23:15:36.590Z,12.77
2018-03-07T23:18:04.195Z,13.45
2018-03-07T23:20:31.723Z,21.27
2018-03-07T23:23:00.024Z,15.40
2018-03-07T23:25:27.530Z,23.60
2018-03-07T23:27:55.042Z,13.82
2018-03-07T23:30:22.610Z,16.10
2018-03-07T23:32:50.123Z,15.15
2018-03-07T23:35:17.641Z,15.93
2018-03-07T23:37:45.202Z,17.60
2018-03-07T23:40:12.791Z,17.55
2018-03-07T23:42:40.557Z,14.60
2018-03-07T23:45:08.230Z,17.27
2018-03-07T23:47:35.771Z,18.65
2018-03-07T23:50:03.304Z,17.98
2018-03-07T23:52:30.834Z,20.15
2018-03-07T23:54:58.392Z,19.37
2018-03-07T23:57:26.685Z,19.50
2018-03-07T23:59:54.202Z,21.27
